Alto Springs, Texas
Current Conditions -  °F | °C
As of 8:35 PM on Tuesday 21 Oct 2014 (Local Time) from KLXY Reporting Station
Clear Clear  
Wind Chill: 68°   Ceiling: Unl
Heat Index: 68°   Visibility: 10mi
Dew Point: 60°   Wind: 0mph
Humidity: 77%   Direction: NA
Pressure: 30.05"   Gusts: NA
Location:  31.3327°N, 96.6013°W
Report Text: KLXY 220135Z AUTO 00000KT 10SM CLR 20/16 A3005 RMK AO2 T01980156
Loading
Personal Weather Stations






























Interactive Weather Map New forecast layout! Learn more

10-Day Weather Forecast

Advertisements
Track Severe Weather on mobile